sensor_id;sensor_type;location;lat;lon;timestamp;pressure;altitude;pressure_sealevel;temperature;humidity
50268;BME280;36153;50.960;6.220;2022-10-13T00:01:53;101013.72;;;15.87;58.36
50268;BME280;36153;50.960;6.220;2022-10-13T00:04:53;101021.59;;;15.94;58.33
50268;BME280;36153;50.960;6.220;2022-10-13T00:07:54;101016.34;;;15.94;58.50
50268;BME280;36153;50.960;6.220;2022-10-13T00:10:54;101012.81;;;16.04;58.20
50268;BME280;36153;50.960;6.220;2022-10-13T00:14:00;101011.88;;;16.13;58.05
50268;BME280;36153;50.960;6.220;2022-10-13T00:17:01;101010.16;;;16.09;58.09
50268;BME280;36153;50.960;6.220;2022-10-13T00:20:03;101015.41;;;16.09;58.26
50268;BME280;36153;50.960;6.220;2022-10-13T00:23:04;101013.66;;;16.09;58.15
50268;BME280;36153;50.960;6.220;2022-10-13T00:26:07;101012.75;;;16.16;57.90
50268;BME280;36153;50.960;6.220;2022-10-13T00:29:08;101011.03;;;16.12;58.03
50268;BME280;36153;50.960;6.220;2022-10-13T00:32:08;101011.88;;;16.22;57.88
50268;BME280;36153;50.960;6.220;2022-10-13T00:35:09;101012.75;;;16.18;57.65
50268;BME280;36153;50.960;6.220;2022-10-13T00:38:10;101006.63;;;16.19;58.02
50268;BME280;36153;50.960;6.220;2022-10-13T00:41:11;101007.50;;;16.19;57.64
50268;BME280;36153;50.960;6.220;2022-10-13T00:47:56;100997.91;;;16.11;57.93
50268;BME280;36153;50.960;6.220;2022-10-13T00:50:57;100992.63;;;16.20;57.96
50268;BME280;36153;50.960;6.220;2022-10-13T00:53:58;100997.00;;;16.18;58.09
50268;BME280;36153;50.960;6.220;2022-10-13T00:57:02;101003.94;;;16.28;57.59
50268;BME280;36153;50.960;6.220;2022-10-13T01:00:04;100989.13;;;16.18;58.00
50268;BME280;36153;50.960;6.220;2022-10-13T01:03:05;100988.25;;;16.20;57.41
50268;BME280;36153;50.960;6.220;2022-10-13T01:06:06;100992.63;;;16.15;57.75
50268;BME280;36153;50.960;6.220;2022-10-13T01:09:07;100987.38;;;16.17;57.96
50268;BME280;36153;50.960;6.220;2022-10-13T01:12:25;100979.50;;;16.15;57.98
50268;BME280;36153;50.960;6.220;2022-10-13T01:15:48;100974.22;;;16.21;57.80
50268;BME280;36153;50.960;6.220;2022-10-13T01:19:37;100969.88;;;16.16;57.98
50268;BME280;36153;50.960;6.220;2022-10-13T01:25:51;100961.00;;;16.38;57.83
50268;BME280;36153;50.960;6.220;2022-10-13T01:32:24;100958.34;;;16.49;57.44
50268;BME280;36153;50.960;6.220;2022-10-13T01:38:55;100958.25;;;16.63;57.01
50268;BME280;36153;50.960;6.220;2022-10-13T01:42:05;100955.69;;;16.51;57.35
50268;BME280;36153;50.960;6.220;2022-10-13T01:45:14;100946.91;;;16.50;57.32
50268;BME280;36153;50.960;6.220;2022-10-13T01:48:18;100948.63;;;16.61;57.06
50268;BME280;36153;50.960;6.220;2022-10-13T01:51:20;100947.78;;;16.55;57.08
50268;BME280;36153;50.960;6.220;2022-10-13T01:54:22;100946.06;;;16.48;57.54
50268;BME280;36153;50.960;6.220;2022-10-13T01:57:37;100942.56;;;16.49;57.16
50268;BME280;36153;50.960;6.220;2022-10-13T02:00:45;100949.56;;;16.47;57.47
50268;BME280;36153;50.960;6.220;2022-10-13T02:10:27;100942.50;;;16.55;57.03
50268;BME280;36153;50.960;6.220;2022-10-13T02:13:33;100941.63;;;16.60;56.82
50268;BME280;36153;50.960;6.220;2022-10-13T02:16:39;100939.94;;;16.51;56.77
50268;BME280;36153;50.960;6.220;2022-10-13T02:19:41;100939.00;;;16.57;56.86
50268;BME280;36153;50.960;6.220;2022-10-13T02:22:44;100943.38;;;16.61;56.60
50268;BME280;36153;50.960;6.220;2022-10-13T02:25:46;100939.88;;;16.57;56.62
50268;BME280;36153;50.960;6.220;2022-10-13T02:28:47;100940.69;;;16.67;55.97
50268;BME280;36153;50.960;6.220;2022-10-13T02:31:47;100939.78;;;16.71;56.14
50268;BME280;36153;50.960;6.220;2022-10-13T02:34:49;100933.69;;;16.69;55.66
50268;BME280;36153;50.960;6.220;2022-10-13T02:37:49;100930.22;;;16.61;56.11
50268;BME280;36153;50.960;6.220;2022-10-13T02:40:49;100929.34;;;16.63;56.22
50268;BME280;36153;50.960;6.220;2022-10-13T02:43:50;100924.88;;;16.70;56.00
50268;BME280;36153;50.960;6.220;2022-10-13T02:46:50;100919.63;;;16.70;55.77
50268;BME280;36153;50.960;6.220;2022-10-13T02:49:51;100926.63;;;16.72;55.88
50268;BME280;36153;50.960;6.220;2022-10-13T02:52:51;100912.56;;;16.78;55.74
50268;BME280;36153;50.960;6.220;2022-10-13T02:55:51;100910.81;;;16.76;55.37
50268;BME280;36153;50.960;6.220;2022-10-13T02:58:52;100905.56;;;16.74;55.36
50268;BME280;36153;50.960;6.220;2022-10-13T03:01:52;100906.44;;;16.79;55.13
50268;BME280;36153;50.960;6.220;2022-10-13T03:04:53;100902.94;;;16.76;55.25
50268;BME280;36153;50.960;6.220;2022-10-13T03:07:53;100896.94;;;16.58;55.78
50268;BME280;36153;50.960;6.220;2022-10-13T03:10:54;100897.84;;;16.55;55.90
50268;BME280;36153;50.960;6.220;2022-10-13T03:13:54;100890.00;;;16.46;56.20
50268;BME280;36153;50.960;6.220;2022-10-13T03:16:54;100890.03;;;16.45;56.60
50268;BME280;36153;50.960;6.220;2022-10-13T03:19:55;100886.47;;;16.50;56.21
50268;BME280;36153;50.960;6.220;2022-10-13T03:22:55;100888.28;;;16.41;56.33
50268;BME280;36153;50.960;6.220;2022-10-13T03:25:55;100887.47;;;16.35;56.64
50268;BME280;36153;50.960;6.220;2022-10-13T03:28:56;100890.94;;;16.37;56.67
50268;BME280;36153;50.960;6.220;2022-10-13T03:31:56;100887.44;;;16.38;56.75
50268;BME280;36153;50.960;6.220;2022-10-13T03:34:56;100895.38;;;16.34;56.27
50268;BME280;36153;50.960;6.220;2022-10-13T03:37:57;100891.81;;;16.38;56.41
50268;BME280;36153;50.960;6.220;2022-10-13T03:41:03;100897.97;;;16.37;56.17
50268;BME280;36153;50.960;6.220;2022-10-13T03:44:04;100888.34;;;16.36;56.66
50268;BME280;36153;50.960;6.220;2022-10-13T03:47:04;100891.00;;;16.27;56.52
50268;BME280;36153;50.960;6.220;2022-10-13T03:50:05;100892.78;;;16.26;56.80
50268;BME280;36153;50.960;6.220;2022-10-13T03:53:06;100889.25;;;16.30;56.36
50268;BME280;36153;50.960;6.220;2022-10-13T03:56:11;100881.47;;;16.10;56.73
50268;BME280;36153;50.960;6.220;2022-10-13T03:59:14;100884.00;;;16.29;56.66
50268;BME280;36153;50.960;6.220;2022-10-13T04:02:16;100890.09;;;16.31;56.69
50268;BME280;36153;50.960;6.220;2022-10-13T04:05:16;100887.47;;;16.32;56.22
50268;BME280;36153;50.960;6.220;2022-10-13T04:08:17;100871.75;;;16.28;56.77
50268;BME280;36153;50.960;6.220;2022-10-13T04:11:17;100861.97;;;16.48;56.07
50268;BME280;36153;50.960;6.220;2022-10-13T04:14:18;100865.50;;;16.44;56.21
50268;BME280;36153;50.960;6.220;2022-10-13T04:17:19;100869.81;;;16.53;55.93
50268;BME280;36153;50.960;6.220;2022-10-13T04:20:19;100866.31;;;16.54;55.92
50268;BME280;36153;50.960;6.220;2022-10-13T04:23:20;100876.81;;;16.54;55.87
50268;BME280;36153;50.960;6.220;2022-10-13T04:26:21;100864.56;;;16.58;55.93
50268;BME280;36153;50.960;6.220;2022-10-13T04:29:22;100862.78;;;16.60;55.64
50268;BME280;36153;50.960;6.220;2022-10-13T04:32:23;100866.00;;;16.97;54.79
50268;BME280;36153;50.960;6.220;2022-10-13T04:35:23;100867.59;;;17.14;54.17
50268;BME280;36153;50.960;6.220;2022-10-13T04:38:24;100863.19;;;17.16;54.54
50268;BME280;36153;50.960;6.220;2022-10-13T04:41:24;100871.97;;;17.15;54.35
50268;BME280;36153;50.960;6.220;2022-10-13T04:44:25;100873.63;;;17.23;54.10
50268;BME280;36153;50.960;6.220;2022-10-13T04:47:25;100868.25;;;17.36;53.78
50268;BME280;36153;50.960;6.220;2022-10-13T04:50:26;100867.31;;;17.40;53.73
50268;BME280;36153;50.960;6.220;2022-10-13T04:53:27;100861.16;;;17.39;53.82
50268;BME280;36153;50.960;6.220;2022-10-13T04:56:28;100861.16;;;17.41;53.73
50268;BME280;36153;50.960;6.220;2022-10-13T04:59:28;100860.38;;;17.31;53.81
50268;BME280;36153;50.960;6.220;2022-10-13T05:02:29;100855.13;;;17.34;53.98
50268;BME280;36153;50.960;6.220;2022-10-13T05:05:29;100850.63;;;17.44;53.71
50268;BME280;36153;50.960;6.220;2022-10-13T05:08:29;100848.09;;;17.33;53.72
50268;BME280;36153;50.960;6.220;2022-10-13T05:11:32;100834.81;;;17.44;53.84
50268;BME280;36153;50.960;6.220;2022-10-13T05:14:32;100833.06;;;17.43;53.45
50268;BME280;36153;50.960;6.220;2022-10-13T05:17:34;100835.72;;;17.42;53.52
50268;BME280;36153;50.960;6.220;2022-10-13T05:20:34;100841.81;;;17.45;53.71
50268;BME280;36153;50.960;6.220;2022-10-13T05:23:34;100835.84;;;17.31;53.81
50268;BME280;36153;50.960;6.220;2022-10-13T05:26:35;100838.47;;;17.31;53.77
50268;BME280;36153;50.960;6.220;2022-10-13T05:29:36;100829.78;;;17.22;54.08
50268;BME280;36153;50.960;6.220;2022-10-13T05:32:36;100828.94;;;17.22;54.29
50268;BME280;36153;50.960;6.220;2022-10-13T05:35:37;100822.03;;;17.13;54.61
50268;BME280;36153;50.960;6.220;2022-10-13T05:38:38;100825.41;;;17.25;54.32
50268;BME280;36153;50.960;6.220;2022-10-13T05:41:39;100819.19;;;17.32;54.01
50268;BME280;36153;50.960;6.220;2022-10-13T05:44:40;100826.22;;;17.28;54.02
50268;BME280;36153;50.960;6.220;2022-10-13T05:47:40;100823.59;;;17.27;54.30
50268;BME280;36153;50.960;6.220;2022-10-13T05:50:42;100823.47;;;17.39;54.35
50268;BME280;36153;50.960;6.220;2022-10-13T05:53:47;100821.69;;;17.39;54.10
50268;BME280;36153;50.960;6.220;2022-10-13T05:56:53;100833.03;;;17.46;54.27
50268;BME280;36153;50.960;6.220;2022-10-13T05:59:58;100820.75;;;17.45;54.00
50268;BME280;36153;50.960;6.220;2022-10-13T06:03:06;100817.06;;;17.62;53.91
50268;BME280;36153;50.960;6.220;2022-10-13T06:06:08;100811.00;;;17.56;53.78
50268;BME280;36153;50.960;6.220;2022-10-13T06:09:09;100804.13;;;17.43;54.23
50268;BME280;36153;50.960;6.220;2022-10-13T06:12:09;100806.91;;;17.31;54.31
50268;BME280;36153;50.960;6.220;2022-10-13T06:15:09;100813.97;;;17.29;54.54
50268;BME280;36153;50.960;6.220;2022-10-13T06:18:10;100812.03;;;17.43;54.34
50268;BME280;36153;50.960;6.220;2022-10-13T06:21:10;100800.59;;;17.46;54.19
50268;BME280;36153;50.960;6.220;2022-10-13T06:24:12;100806.69;;;17.51;54.16
50268;BME280;36153;50.960;6.220;2022-10-13T06:27:13;100805.75;;;17.53;54.24
50268;BME280;36153;50.960;6.220;2022-10-13T06:30:13;100800.41;;;17.60;53.79
50268;BME280;36153;50.960;6.220;2022-10-13T06:33:14;100804.75;;;17.64;53.99
50268;BME280;36153;50.960;6.220;2022-10-13T06:36:15;100797.63;;;17.72;53.96
50268;BME280;36153;50.960;6.220;2022-10-13T06:39:15;100797.50;;;17.81;53.62
50268;BME280;36153;50.960;6.220;2022-10-13T06:42:16;100799.34;;;17.76;53.67
50268;BME280;36153;50.960;6.220;2022-10-13T06:45:17;100804.59;;;17.76;53.46
50268;BME280;36153;50.960;6.220;2022-10-13T06:48:18;100806.31;;;17.80;53.63
50268;BME280;36153;50.960;6.220;2022-10-13T06:51:18;100792.19;;;17.86;53.76
50268;BME280;36153;50.960;6.220;2022-10-13T06:54:20;100800.84;;;17.96;53.40
50268;BME280;36153;50.960;6.220;2022-10-13T06:57:20;100791.00;;;17.42;54.51
50268;BME280;36153;50.960;6.220;2022-10-13T07:00:21;100796.19;;;17.46;55.13
50268;BME280;36153;50.960;6.220;2022-10-13T07:03:22;100801.38;;;17.54;54.97
50268;BME280;36153;50.960;6.220;2022-10-13T07:06:23;100799.59;;;17.54;54.74
50268;BME280;36153;50.960;6.220;2022-10-13T07:09:23;100802.16;;;17.62;54.84
50268;BME280;36153;50.960;6.220;2022-10-13T07:12:24;100795.78;;;17.77;54.36
50268;BME280;36153;50.960;6.220;2022-10-13T07:15:24;100806.31;;;17.77;54.35
50268;BME280;36153;50.960;6.220;2022-10-13T07:18:25;100804.75;;;17.64;54.60
50268;BME280;36153;50.960;6.220;2022-10-13T07:21:25;100811.78;;;17.62;54.57
50268;BME280;36153;50.960;6.220;2022-10-13T07:24:26;100813.34;;;17.77;54.29
50268;BME280;36153;50.960;6.220;2022-10-13T07:27:26;100804.44;;;17.85;54.03
50268;BME280;36153;50.960;6.220;2022-10-13T07:30:27;100813.28;;;17.81;54.12
50268;BME280;36153;50.960;6.220;2022-10-13T07:33:27;100819.25;;;17.99;54.04
50268;BME280;36153;50.960;6.220;2022-10-13T07:36:27;100816.47;;;18.08;53.78
50268;BME280;36153;50.960;6.220;2022-10-13T07:39:28;100818.88;;;18.23;53.17
50268;BME280;36153;50.960;6.220;2022-10-13T07:42:28;100826.53;;;18.40;52.70
50268;BME280;36153;50.960;6.220;2022-10-13T07:45:30;100811.38;;;18.53;51.59
50268;BME280;36153;50.960;6.220;2022-10-13T07:48:30;100814.50;;;18.75;51.63
50268;BME280;36153;50.960;6.220;2022-10-13T07:51:31;100817.56;;;19.02;51.05
50268;BME280;36153;50.960;6.220;2022-10-13T07:54:31;100807.72;;;19.12;50.80
50268;BME280;36153;50.960;6.220;2022-10-13T07:57:32;100808.41;;;19.22;50.89
50268;BME280;36153;50.960;6.220;2022-10-13T08:00:32;100812.75;;;19.24;50.24
50268;BME280;36153;50.960;6.220;2022-10-13T08:03:33;100807.31;;;19.34;50.38
50268;BME280;36153;50.960;6.220;2022-10-13T08:06:33;100797.78;;;19.26;50.33
50268;BME280;36153;50.960;6.220;2022-10-13T08:09:34;100804.28;;;19.08;50.80
50268;BME280;36153;50.960;6.220;2022-10-13T08:12:35;100800.44;;;19.26;50.83
50268;BME280;36153;50.960;6.220;2022-10-13T08:15:42;100791.78;;;19.18;50.62
50268;BME280;36153;50.960;6.220;2022-10-13T08:18:44;100798.69;;;19.25;50.23
50268;BME280;36153;50.960;6.220;2022-10-13T08:21:45;100795.88;;;19.35;50.10
50268;BME280;36153;50.960;6.220;2022-10-13T08:24:46;100801.56;;;19.57;50.07
50268;BME280;36153;50.960;6.220;2022-10-13T08:27:47;100794.31;;;19.67;49.65
50268;BME280;36153;50.960;6.220;2022-10-13T08:30:48;100808.16;;;19.78;48.84
50268;BME280;36153;50.960;6.220;2022-10-13T08:33:58;100809.84;;;19.84;48.70
50268;BME280;36153;50.960;6.220;2022-10-13T08:36:58;100808.00;;;19.86;48.56
50268;BME280;36153;50.960;6.220;2022-10-13T08:39:59;100802.22;;;20.09;48.13
50268;BME280;36153;50.960;6.220;2022-10-13T08:42:59;100803.94;;;20.48;48.00
50268;BME280;36153;50.960;6.220;2022-10-13T08:46:01;100795.34;;;20.75;47.54
50268;BME280;36153;50.960;6.220;2022-10-13T08:49:03;100796.22;;;21.09;47.04
50268;BME280;36153;50.960;6.220;2022-10-13T08:52:04;100789.78;;;21.49;46.44
50268;BME280;36153;50.960;6.220;2022-10-13T08:55:17;100793.13;;;21.24;45.56
50268;BME280;36153;50.960;6.220;2022-10-13T08:58:24;100797.78;;;21.46;45.76
50268;BME280;36153;50.960;6.220;2022-10-13T09:01:31;100790.59;;;21.51;45.41
50268;BME280;36153;50.960;6.220;2022-10-13T09:04:39;100791.94;;;21.35;45.24
50268;BME280;36153;50.960;6.220;2022-10-13T09:07:43;100790.03;;;21.08;45.44
50268;BME280;36153;50.960;6.220;2022-10-13T09:10:49;100782.75;;;21.17;45.81
50268;BME280;36153;50.960;6.220;2022-10-13T09:13:53;100790.34;;;20.97;45.92
50268;BME280;36153;50.960;6.220;2022-10-13T09:16:56;100786.28;;;20.84;46.85
50268;BME280;36153;50.960;6.220;2022-10-13T09:20:20;100787.44;;;20.74;46.61
50268;BME280;36153;50.960;6.220;2022-10-13T09:23:21;100789.84;;;20.47;47.12
50268;BME280;36153;50.960;6.220;2022-10-13T09:26:23;100786.38;;;20.45;47.91
50268;BME280;36153;50.960;6.220;2022-10-13T09:29:25;100790.25;;;20.30;48.59
50268;BME280;36153;50.960;6.220;2022-10-13T09:32:25;100789.41;;;20.29;48.37
50268;BME280;36153;50.960;6.220;2022-10-13T09:35:26;100782.88;;;20.43;47.92
50268;BME280;36153;50.960;6.220;2022-10-13T09:38:27;100774.00;;;20.45;47.75
50268;BME280;36153;50.960;6.220;2022-10-13T09:41:27;100771.84;;;20.61;48.22
50268;BME280;36153;50.960;6.220;2022-10-13T09:44:30;100769.06;;;20.68;48.06
50268;BME280;36153;50.960;6.220;2022-10-13T09:47:31;100767.56;;;20.57;48.41
50268;BME280;36153;50.960;6.220;2022-10-13T09:50:33;100761.97;;;20.70;48.54
50268;BME280;36153;50.960;6.220;2022-10-13T09:53:37;100755.91;;;20.64;48.19
50268;BME280;36153;50.960;6.220;2022-10-13T09:56:43;100754.25;;;20.60;48.26
50268;BME280;36153;50.960;6.220;2022-10-13T09:59:48;100750.03;;;20.88;48.13
50268;BME280;36153;50.960;6.220;2022-10-13T10:03:09;100754.19;;;20.96;47.99
50268;BME280;36153;50.960;6.220;2022-10-13T10:06:13;100751.28;;;21.37;47.29
50268;BME280;36153;50.960;6.220;2022-10-13T10:09:36;100748.47;;;21.42;47.48
50268;BME280;36153;50.960;6.220;2022-10-13T10:12:40;100753.16;;;21.34;47.12
50268;BME280;36153;50.960;6.220;2022-10-13T10:15:50;100742.00;;;21.22;47.50
50268;BME280;36153;50.960;6.220;2022-10-13T10:18:59;100746.03;;;21.04;47.53
50268;BME280;36153;50.960;6.220;2022-10-13T10:22:20;100751.25;;;21.07;47.81
50268;BME280;36153;50.960;6.220;2022-10-13T10:25:37;100743.13;;;20.82;48.19
50268;BME280;36153;50.960;6.220;2022-10-13T10:35:15;100745.81;;;20.46;50.18
50268;BME280;36153;50.960;6.220;2022-10-13T10:42:02;100755.25;;;20.20;50.65
50268;BME280;36153;50.960;6.220;2022-10-13T10:45:13;100751.84;;;20.17;51.10
50268;BME280;36153;50.960;6.220;2022-10-13T10:48:20;100747.69;;;20.05;51.48
50268;BME280;36153;50.960;6.220;2022-10-13T10:51:26;100752.03;;;20.07;51.62
50268;BME280;36153;50.960;6.220;2022-10-13T10:54:42;100747.69;;;20.05;52.60
50268;BME280;36153;50.960;6.220;2022-10-13T10:57:56;100742.78;;;19.89;53.16
50268;BME280;36153;50.960;6.220;2022-10-13T11:04:35;100733.97;;;19.90;53.50
50268;BME280;36153;50.960;6.220;2022-10-13T11:10:39;100726.94;;;19.89;54.60
50268;BME280;36153;50.960;6.220;2022-10-13T11:32:46;100711.38;;;21.13;53.74
50268;BME280;36153;50.960;6.220;2022-10-13T11:35:54;100702.75;;;21.37;52.91
50268;BME280;36153;50.960;6.220;2022-10-13T11:45:26;100701.28;;;21.26;51.46
50268;BME280;36153;50.960;6.220;2022-10-13T11:52:12;100686.72;;;21.71;51.96
50268;BME280;36153;50.960;6.220;2022-10-13T11:58:40;100674.78;;;21.85;50.18
50268;BME280;36153;50.960;6.220;2022-10-13T12:01:43;100670.88;;;21.96;50.19
50268;BME280;36153;50.960;6.220;2022-10-13T12:04:45;100677.41;;;22.13;50.24
50268;BME280;36153;50.960;6.220;2022-10-13T12:08:02;100667.59;;;22.15;50.48
50268;BME280;36153;50.960;6.220;2022-10-13T12:11:03;100662.72;;;22.03;50.63
50268;BME280;36153;50.960;6.220;2022-10-13T12:14:18;100667.72;;;22.12;50.72
50268;BME280;36153;50.960;6.220;2022-10-13T12:20:23;100659.44;;;21.94;50.99
50268;BME280;36153;50.960;6.220;2022-10-13T12:23:25;100655.78;;;21.98;51.04
50268;BME280;36153;50.960;6.220;2022-10-13T12:26:26;100654.41;;;22.13;51.22
50268;BME280;36153;50.960;6.220;2022-10-13T12:29:27;100653.97;;;22.26;50.80
50268;BME280;36153;50.960;6.220;2022-10-13T12:32:30;100656.09;;;22.16;50.49
50268;BME280;36153;50.960;6.220;2022-10-13T12:35:32;100647.31;;;21.87;50.23
50268;BME280;36153;50.960;6.220;2022-10-13T12:38:33;100647.94;;;21.69;50.16
50268;BME280;36153;50.960;6.220;2022-10-13T12:41:35;100649.97;;;21.30;51.54
50268;BME280;36153;50.960;6.220;2022-10-13T12:44:37;100645.78;;;21.23;51.67
50268;BME280;36153;50.960;6.220;2022-10-13T12:50:48;100645.88;;;21.20;52.00
50268;BME280;36153;50.960;6.220;2022-10-13T12:53:48;100652.63;;;21.30;52.31
50268;BME280;36153;50.960;6.220;2022-10-13T12:56:50;100649.75;;;21.38;52.10
50268;BME280;36153;50.960;6.220;2022-10-13T12:59:51;100656.94;;;21.33;52.27
50268;BME280;36153;50.960;6.220;2022-10-13T13:02:55;100649.63;;;21.41;52.29
50268;BME280;36153;50.960;6.220;2022-10-13T13:06:08;100648.97;;;21.35;53.20
50268;BME280;36153;50.960;6.220;2022-10-13T13:09:22;100646.22;;;21.38;53.36
50268;BME280;36153;50.960;6.220;2022-10-13T13:12:26;100643.13;;;21.23;53.97
50268;BME280;36153;50.960;6.220;2022-10-13T13:15:35;100653.63;;;21.26;54.16
50268;BME280;36153;50.960;6.220;2022-10-13T13:18:38;100639.69;;;21.21;54.27
50268;BME280;36153;50.960;6.220;2022-10-13T13:21:41;100636.28;;;21.16;55.19
50268;BME280;36153;50.960;6.220;2022-10-13T13:24:41;100644.44;;;21.10;56.04
50268;BME280;36153;50.960;6.220;2022-10-13T13:27:42;100639.50;;;20.97;56.54
50268;BME280;36153;50.960;6.220;2022-10-13T13:30:42;100630.38;;;21.08;56.02
50268;BME280;36153;50.960;6.220;2022-10-13T13:33:44;100628.72;;;21.04;55.99
50268;BME280;36153;50.960;6.220;2022-10-13T13:36:47;100631.97;;;21.13;56.39
50268;BME280;36153;50.960;6.220;2022-10-13T13:39:48;100627.97;;;20.98;56.81
50268;BME280;36153;50.960;6.220;2022-10-13T13:42:48;100637.81;;;20.95;56.62
50268;BME280;36153;50.960;6.220;2022-10-13T13:45:49;100633.91;;;21.07;57.77
50268;BME280;36153;50.960;6.220;2022-10-13T13:48:50;100630.84;;;21.21;57.35
50268;BME280;36153;50.960;6.220;2022-10-13T13:51:51;100625.34;;;21.28;57.14
50268;BME280;36153;50.960;6.220;2022-10-13T13:54:51;100614.41;;;21.39;56.80
50268;BME280;36153;50.960;6.220;2022-10-13T13:57:52;100610.88;;;21.39;56.80
50268;BME280;36153;50.960;6.220;2022-10-13T14:00:52;100605.91;;;21.28;56.65
50268;BME280;36153;50.960;6.220;2022-10-13T14:03:53;100604.00;;;21.33;56.59
50268;BME280;36153;50.960;6.220;2022-10-13T14:06:53;100607.19;;;21.16;56.84
50268;BME280;36153;50.960;6.220;2022-10-13T14:09:53;100603.53;;;21.20;56.20
50268;BME280;36153;50.960;6.220;2022-10-13T14:12:56;100602.09;;;21.10;56.38
50268;BME280;36153;50.960;6.220;2022-10-13T14:15:58;100591.66;;;21.04;56.40
50268;BME280;36153;50.960;6.220;2022-10-13T14:18:59;100598.97;;;20.95;56.73
50268;BME280;36153;50.960;6.220;2022-10-13T14:21:59;100590.34;;;20.89;56.59
50268;BME280;36153;50.960;6.220;2022-10-13T14:25:00;100594.13;;;20.80;56.75
50268;BME280;36153;50.960;6.220;2022-10-13T14:28:00;100592.81;;;20.95;56.08
50268;BME280;36153;50.960;6.220;2022-10-13T14:31:04;100592.34;;;20.80;56.19
50268;BME280;36153;50.960;6.220;2022-10-13T14:34:05;100592.00;;;20.61;56.02
50268;BME280;36153;50.960;6.220;2022-10-13T14:37:05;100584.59;;;20.43;56.58
50268;BME280;36153;50.960;6.220;2022-10-13T14:40:06;100585.03;;;20.59;56.20
50268;BME280;36153;50.960;6.220;2022-10-13T14:43:06;100586.78;;;20.58;55.90
50268;BME280;36153;50.960;6.220;2022-10-13T14:46:08;100588.81;;;20.50;55.64
50268;BME280;36153;50.960;6.220;2022-10-13T14:49:09;100588.63;;;20.56;55.21
50268;BME280;36153;50.960;6.220;2022-10-13T14:52:10;100598.41;;;20.53;55.38
50268;BME280;36153;50.960;6.220;2022-10-13T14:55:10;100593.81;;;20.59;54.99
50268;BME280;36153;50.960;6.220;2022-10-13T14:58:11;100591.50;;;20.47;55.14
50268;BME280;36153;50.960;6.220;2022-10-13T15:01:11;100588.41;;;20.33;55.36
50268;BME280;36153;50.960;6.220;2022-10-13T15:04:11;100587.09;;;20.16;54.83
50268;BME280;36153;50.960;6.220;2022-10-13T15:07:12;100587.41;;;20.04;54.13
50268;BME280;36153;50.960;6.220;2022-10-13T15:10:12;100583.00;;;20.04;53.97
50268;BME280;36153;50.960;6.220;2022-10-13T15:13:12;100584.19;;;19.92;54.65
50268;BME280;36153;50.960;6.220;2022-10-13T15:16:18;100585.56;;;19.71;55.54
50268;BME280;36153;50.960;6.220;2022-10-13T15:19:19;100582.47;;;19.54;55.65
50268;BME280;36153;50.960;6.220;2022-10-13T15:22:19;100584.63;;;19.38;56.77
50268;BME280;36153;50.960;6.220;2022-10-13T15:25:19;100588.94;;;19.42;57.37
50268;BME280;36153;50.960;6.220;2022-10-13T15:28:21;100596.06;;;19.37;57.34
50268;BME280;36153;50.960;6.220;2022-10-13T15:31:21;100588.81;;;19.47;57.76
50268;BME280;36153;50.960;6.220;2022-10-13T15:34:22;100584.88;;;19.27;58.52
50268;BME280;36153;50.960;6.220;2022-10-13T15:37:23;100589.16;;;18.92;59.30
50268;BME280;36153;50.960;6.220;2022-10-13T15:40:23;100592.19;;;18.73;59.91
50268;BME280;36153;50.960;6.220;2022-10-13T15:43:23;100598.44;;;18.66;60.68
50268;BME280;36153;50.960;6.220;2022-10-13T15:46:24;100597.63;;;18.64;61.40
50268;BME280;36153;50.960;6.220;2022-10-13T15:49:25;100595.16;;;18.55;62.49
50268;BME280;36153;50.960;6.220;2022-10-13T15:52:26;100597.91;;;18.50;63.00
50268;BME280;36153;50.960;6.220;2022-10-13T15:55:26;100599.91;;;18.39;63.11
50268;BME280;36153;50.960;6.220;2022-10-13T15:58:28;100592.78;;;18.44;63.24
50268;BME280;36153;50.960;6.220;2022-10-13T16:01:28;100591.06;;;18.41;63.04
50268;BME280;36153;50.960;6.220;2022-10-13T16:04:30;100595.38;;;18.46;63.07
50268;BME280;36153;50.960;6.220;2022-10-13T16:07:31;100587.78;;;18.29;63.26
50268;BME280;36153;50.960;6.220;2022-10-13T16:10:31;100585.94;;;18.34;63.25
50268;BME280;36153;50.960;6.220;2022-10-13T16:13:32;100594.28;;;18.56;63.27
50268;BME280;36153;50.960;6.220;2022-10-13T16:16:32;100590.34;;;18.33;63.56
50268;BME280;36153;50.960;6.220;2022-10-13T16:19:32;100579.03;;;18.27;63.64
50268;BME280;36153;50.960;6.220;2022-10-13T16:22:33;100577.06;;;18.38;63.77
50268;BME280;36153;50.960;6.220;2022-10-13T16:25:37;100575.06;;;18.49;63.38
50268;BME280;36153;50.960;6.220;2022-10-13T16:28:38;100582.84;;;18.57;63.25
50268;BME280;36153;50.960;6.220;2022-10-13T16:31:39;100570.44;;;18.60;62.92
50268;BME280;36153;50.960;6.220;2022-10-13T16:34:39;100576.50;;;18.66;63.12
50268;BME280;36153;50.960;6.220;2022-10-13T16:37:39;100577.31;;;18.69;62.43
50268;BME280;36153;50.960;6.220;2022-10-13T16:40:40;100577.34;;;18.66;62.37
50268;BME280;36153;50.960;6.220;2022-10-13T16:43:41;100573.09;;;18.60;62.89
50268;BME280;36153;50.960;6.220;2022-10-13T16:46:42;100582.91;;;18.52;62.83
50268;BME280;36153;50.960;6.220;2022-10-13T16:49:43;100576.88;;;18.47;63.06
50268;BME280;36153;50.960;6.220;2022-10-13T16:52:43;100583.94;;;18.45;63.06
50268;BME280;36153;50.960;6.220;2022-10-13T16:55:45;100580.59;;;18.37;63.23
50268;BME280;36153;50.960;6.220;2022-10-13T16:58:53;100590.94;;;18.48;63.32
50268;BME280;36153;50.960;6.220;2022-10-13T17:01:54;100589.88;;;18.56;62.70
50268;BME280;36153;50.960;6.220;2022-10-13T17:04:56;100595.06;;;18.61;62.71
50268;BME280;36153;50.960;6.220;2022-10-13T17:07:57;100592.44;;;18.61;62.61
50268;BME280;36153;50.960;6.220;2022-10-13T17:11:00;100597.84;;;18.53;62.85